Tiempo atmosférico en la estación meteorológica de Alpandeire, Málaga (680 m.)



Fecha
DESCASC
Temp. máxima en grados centígrados (hora)
DESCASC
Temp. mínima en grados centígrados (hora)
DESCASC
Temp. media en grados centígrados
DESCASC
Racha de viento máxima en m/sg (hora)
DESCASC
Velocidad máxima media en intervalos de 10 minutos(hora)
DESCASC
Precipitaciones diarias en mm
DESCASC
Precipitaciones de 00:00 a 06:00 en mm
DESCASC
Precipitaciones de 06:00 a 12:00 en mm
DESCASC
Precipitaciones de 12:00 a 18:00 en mm
DESCASC
Precipitaciones de 18:00 a 24:00 en mm
DESCASC
18-01-2018 16.1 (00:10) 8.7 (23:59) 12.4 10.28 (09:50) 5.56 (00:10) 0 0 0 0 0
17-01-2018 22 (15:20) 8.3 (01:10) 15.2 11.11 (23:50) 6.67 (23:59) 0 0 0 0 0
16-01-2018 16.2 (16:30) 2.9 (06:10) 9.6 4.17 (01:40) 2.78 (02:20) 0 0 0 0 0
15-01-2018 13 (16:30) 2.4 (08:10) 7.7 8.61 (00:30) 3.61 (06:50) 0 0 0 0 0
14-01-2018 9.4 (16:10) 4.4 (00:00) 6.9 6.67 (23:59) 2.78 (00:40) 3 0 1.6 1.4 0
13-01-2018 9.5 (17:00) 4.5 (00:00) 7 9.72 (20:20) 5.28 (20:20) 2.6 0 0 2.6 0
12-01-2018 13.9 (14:40) 3 (00:00) 8.4 7.78 (00:20) 2.5 (15:00) 0 0 0 0 0
11-01-2018 9.9 (14:30) 4.8 (00:00) 7.3 10.83 (15:00) 5 (14:50) 0 0 0 0 0
10-01-2018 13.3 (13:40) 7.7 (00:00) 10.5 11.39 (13:20) 5 (18:20) 7.2 6.8 0 0 0.4
09-01-2018 8.3 (21:00) 1.1 (00:00) 4.7 8.06 (21:50) 3.33 (21:50) 12 0 0 4.6 7.4
08-01-2018 -- (--) -- (--) -- -- (--) -- (--) -- 0 -- 2.2 0
07-01-2018 8 (15:30) 0.6 (00:00) 4.3 8.06 (16:10) 4.17 (16:10) 0 0 0 0 0
06-01-2018 9.6 (00:40) 3.3 (00:00) 6.5 19.72 (10:30) 10.56 (10:00) 20.6 11.8 8.8 0 0
05-01-2018 12.3 (11:40) 6.7 (00:00) 9.5 9.72 (06:20) 5.28 (16:50) 0 0 0 0 0
04-01-2018 21.8 (12:30) 8.6 (23:00) 15.2 8.61 (14:40) 5 (15:00) 0 0 0 0 0
03-01-2018 22.3 (15:30) 10.8 (00:00) 16.5 7.78 (18:00) 4.17 (18:00) 0 0 0 0 0
02-01-2018 18.9 (15:00) 7.6 (00:00) 13.2 12.5 (07:50) 5.56 (07:40) 0 0 0 0 0
01-01-2018 17.9 (13:30) 5.5 (00:00) 11.7 11.39 (00:50) 5 (14:10) 0 0 0 0 0
31-12-2017 14.4 (14:10) 9.3 (00:00) 11.8 12.22 (15:50) 6.11 (15:50) 0 0 0 0 0
30-12-2017 20.5 (15:50) 9 (00:00) 14.8 3.61 (03:10) 2.5 (03:10) 0 0 0 0 0
29-12-2017 15 (17:00) 10.1 (00:00) 12.6 12.5 (14:20) 5.28 (14:20) 0 0 0 0 0
28-12-2017 12.5 (22:00) 9.8 (00:00) 11.2 9.72 (23:00) 4.44 (23:20) 6.4 1 2 2.6 0.8
27-12-2017 12.1 (09:40) 8.6 (00:00) 10.4 20.56 (05:40) 9.17 (08:00) 7.4 2.2 5.2 0 0
26-12-2017 11.4 (12:10) 8.6 (00:00) 10 12.5 (10:50) 6.11 (10:50) 7.4 2.8 4.6 0 0
25-12-2017 10.3 (14:10) 6.6 (00:00) 8.5 6.39 (00:30) 3.33 (00:20) 2 0 0 0.2 1.8
24-12-2017 13.7 (16:10) 8 (00:00) 10.8 8.06 (13:10) 3.89 (04:10) 0 0 0 0 0

Gráficas

Temp. máximas Temp. mínimas Temp. medias Precipitaciones Rachas de viento máximas Velocidades máximas media en intervalos de 10 minutos

Datos horarios

Fecha y hora oficial Temperatura (ºC) Velocidad del viento (km/h) Dirección del viento Racha (km/h) Dirección de racha Precipitación (mm) Presión (hPa) Tendencia (hPa) Humedad (%)
2018-01-22 23:00:00 11.6 4 Nordeste 8 Nordeste 0 -- -- 59
2018-01-22 22:00:00 12.5 3 Nordeste 9 Este 0 -- -- 63
2018-01-22 21:00:00 12.9 3 Nordeste 8 Nordeste 0 -- -- 66
2018-01-22 20:00:00 13.6 3 Este 6 Nordeste 0 -- -- 64
2018-01-22 19:00:00 15.8 3 Sudeste 10 Sur 0 -- -- 56
2018-01-22 18:00:00 19.6 5 Oeste 20 Oeste 0 -- -- 47
2018-01-22 17:00:00 20.7 10 Noroeste 20 Sur 0 -- -- 43
2018-01-22 16:00:00 21.3 7 Nordeste 24 Norte 0 -- -- 38
2018-01-22 15:00:00 22.2 6 Este 18 Sudeste 0 -- -- 35
2018-01-22 14:00:00 21.7 8 Oeste 15 Sudoeste 0 -- -- 38
2018-01-22 13:00:00 20.5 5 Sudoeste 15 Sudoeste 0 -- -- 42
2018-01-22 12:00:00 18.9 5 Sur 12 Oeste 0 -- -- 45
2018-01-22 11:00:00 16.1 3 Sudoeste 6 Sur 0 -- -- 52
2018-01-22 10:00:00 13 2 Sudeste 8 Nordeste 0 -- -- 62
2018-01-22 09:00:00 11 3 Noroeste 14 Sur 0 -- -- 60
2018-01-22 08:00:00 11.6 4 Nordeste 9 Sudeste 0 -- -- 57
2018-01-22 07:00:00 12.2 5 Este 12 Nordeste 0 -- -- 56
2018-01-22 06:00:00 11 3 Nordeste 9 Este 0 -- -- 61
2018-01-22 05:00:00 12.4 3 Norte 23 Este 0 -- -- 56
2018-01-22 04:00:00 11 3 Norte 14 Nordeste 0 -- -- 61
2018-01-22 03:00:00 10.2 5 Nordeste 10 Nordeste 0 -- -- 66
2018-01-22 02:00:00 10.4 4 Norte 8 Este 0 -- -- 67
2018-01-22 01:00:00 10.3 3 Nordeste 8 Sudeste 0 -- -- 68
2018-01-22 00:00:00 9.9 3 Este 8 Este 0 -- -- 69
2018-01-21 23:00:00 10.3 2 Sudeste 9 Sudeste 0 -- -- 69
2018-01-21 22:00:00 11.5 2 Sur 14 Sudeste 0 -- -- 67
2018-01-21 21:00:00 11.2 4 Nordeste 6 Nordeste 0 -- -- 71
2018-01-21 20:00:00 12.6 0 Calma 9 Sudeste 0 -- -- 67
2018-01-21 19:00:00 15.1 3 Sur 17 Nordeste 0 -- -- 55
2018-01-21 18:00:00 17.8 4 Este 16 Este 0 -- -- 51
2018-01-21 17:00:00 19.8 5 Nordeste 21 Nordeste 0 -- -- 43
2018-01-21 16:00:00 20.8 8 Nordeste 20 Nordeste 0 -- -- 38
2018-01-21 15:00:00 20.2 7 Oeste 23 Sudeste 0 -- -- 44
2018-01-21 14:00:00 19.2 8 Norte 27 Norte 0 -- -- 39
2018-01-21 13:00:00 19 11 Sur 23 Sur 0 -- -- 47
2018-01-21 12:00:00 16.9 8 Oeste 16 Sudoeste 0 -- -- 49
2018-01-21 11:00:00 14.9 8 Oeste 23 Sudoeste 0 -- -- 49
2018-01-21 10:00:00 12.6 7 Oeste 13 Oeste 0 -- -- 53
2018-01-21 09:00:00 13.3 6 Oeste 32 Norte 0 -- -- 47
2018-01-21 08:00:00 13.9 13 Nordeste 39 Nordeste 0 -- -- 44
2018-01-21 07:00:00 14.5 10 Nordeste 43 Norte 0 -- -- 41
2018-01-21 06:00:00 14.2 12 Nordeste 32 Este 0 -- -- 39
2018-01-21 05:00:00 14.2 18 Nordeste 47 Este 0 -- -- 44
2018-01-21 04:00:00 12.6 8 Este 38 Nordeste 0 -- -- 40
2018-01-21 03:00:00 13.5 11 Este 37 Norte 0 -- -- 37
2018-01-21 02:00:00 13.8 13 Este 40 Norte 0 -- -- 36
2018-01-21 01:00:00 13.7 16 Nordeste 45 Nordeste 0 -- -- 24
2018-01-21 00:00:00 12.7 12 Nordeste 32 Nordeste 0 -- -- 37
2018-01-20 23:00:00 13.1 22 Nordeste 41 Norte 0 -- -- 42
2018-01-20 22:00:00 12.8 4 Sudeste 39 Nordeste 0 -- -- 46
2018-01-20 21:00:00 13.5 16 Nordeste 31 Norte 0 -- -- 37
2018-01-20 20:00:00 13.3 7 Sudoeste 21 Nordeste 0 -- -- 40
2018-01-20 19:00:00 13.8 9 Nordeste 27 Nordeste 0 -- -- 35
2018-01-20 18:00:00 15.8 6 Norte 28 Norte 0 -- -- 35
2018-01-20 17:00:00 16.9 5 Este 27 Norte 0 -- -- 34
2018-01-20 16:00:00 17.3 11 Norte 31 Norte 0 -- -- 36
2018-01-20 15:00:00 18.2 4 Oeste 32 Sudoeste 0 -- -- 35
2018-01-20 14:00:00 17.9 11 Sur 21 Sudoeste 0 -- -- 41
2018-01-20 13:00:00 16.2 8 Sudoeste 26 Sudoeste 0 -- -- 46
2018-01-20 12:00:00 14.9 8 Sur 18 Este 0 -- -- 52
2018-01-20 11:00:00 12.8 11 Sudeste 24 Nordeste 0 -- -- 55
2018-01-20 10:00:00 11.2 6 Sudeste 21 Sur 0 -- -- 59
2018-01-20 09:00:00 9.9 4 Sur 24 Norte 0 -- -- 56
2018-01-20 08:00:00 7.9 3 Este 8 Nordeste 0 -- -- 65
2018-01-20 07:00:00 7.8 4 Nordeste 9 Nordeste 0 -- -- 68
2018-01-20 06:00:00 7.6 2 Nordeste 6 Este 0 -- -- 70
2018-01-20 05:00:00 7.9 3 Norte 8 Noroeste 0 -- -- 69
2018-01-20 04:00:00 7.8 3 Nordeste 6 Nordeste 0 -- -- 72
2018-01-20 03:00:00 8.4 0 Calma 9 Sudeste 0 -- -- 70
2018-01-20 02:00:00 9 4 Este 9 Nordeste 0 -- -- 68
2018-01-20 01:00:00 10.1 4 Nordeste 21 Norte 0 -- -- 65
2018-01-20 00:00:00 12.2 8 Este 50 Norte 0 -- -- 57
2018-01-19 23:00:00 11.1 5 Norte 25 Nordeste 0 -- -- 61
2018-01-19 22:00:00 11.1 4 Norte 36 Nordeste 0 -- -- 59
2018-01-19 21:00:00 10.7 5 Sudoeste 13 Oeste 0 -- -- 65
2018-01-19 20:00:00 10.9 3 Sur 9 Nordeste 0 -- -- 67
2018-01-19 19:00:00 12.5 4 Sur 10 Sudeste 0 -- -- 63
2018-01-19 18:00:00 15.3 4 Sudoeste 26 Norte 0 -- -- 55
2018-01-19 17:00:00 15.7 12 Nordeste 24 Nordeste 0 -- -- 53
2018-01-19 16:00:00 16.5 9 Nordeste 21 Nordeste 0 -- -- 51
2018-01-19 15:00:00 16.8 7 Sudoeste 13 Sudoeste 0 -- -- 48
2018-01-19 14:00:00 15.8 6 Sudoeste 12 Sur 0 -- -- 47
2018-01-19 13:00:00 13.8 4 Oeste 10 Sudoeste 0 -- -- 55
2018-01-19 12:00:00 11.7 0 Calma 3 Sur 0 -- -- 59
2018-01-19 11:00:00 10.2 0 Calma 4 Noroeste 0 -- -- 64
2018-01-19 10:00:00 8.6 0 Calma 3 Este 0 -- -- 69
2018-01-19 09:00:00 8 2 Nordeste 8 Noroeste 0 -- -- 68
2018-01-19 08:00:00 7.8 4 Nordeste 8 Nordeste 0 -- -- 67
2018-01-19 07:00:00 8 4 Este 6 Sudeste 0 -- -- 66
2018-01-19 06:00:00 8.1 0 Calma 6 Nordeste 0 -- -- 69
2018-01-19 05:00:00 8.3 0 Calma 9 Sudeste 0 -- -- 67
2018-01-19 04:00:00 8.3 0 Calma 5 Este 0 -- -- 69
2018-01-19 03:00:00 8.4 4 Nordeste 8 Nordeste 0 -- -- 68
2018-01-19 02:00:00 8.4 3 Sudeste 12 Nordeste 0 -- -- 68
2018-01-19 01:00:00 8.9 5 Nordeste 9 Nordeste 0 -- -- 65
2018-01-19 00:00:00 8.7 0 Calma 6 Este 0 -- -- 65
2018-01-18 23:00:00 8.9 3 Este 5 Este 0 -- -- 65
2018-01-18 22:00:00 9.6 3 Este 18 Este 0 -- -- 61
2018-01-18 21:00:00 10.4 9 Este 22 Este 0 -- -- 55
2018-01-18 20:00:00 10.8 6 Sudoeste 23 Nordeste 0 -- -- 51
2018-01-18 19:00:00 11.3 8 Sur 22 Sudoeste 0 -- -- 48
2018-01-18 18:00:00 11.5 9 Este 35 Sudeste 0 -- -- 51
2018-01-18 17:00:00 12.7 9 Este 21 Sur 0 -- -- 50
2018-01-18 16:00:00 14.5 7 Este 30 Sur 0 -- -- 49
2018-01-18 15:00:00 13 10 Sur 32 Sudeste 0 -- -- 58
2018-01-18 14:00:00 12.9 11 Sudeste 27 Sur 0 -- -- 60
2018-01-18 13:00:00 12.8 8 Sudeste 31 Sudeste 0 -- -- 55
2018-01-18 12:00:00 12.3 9 Sudeste 33 Sur 0 -- -- 59
2018-01-18 11:00:00 11.3 7 Este 23 Sudeste 0 -- -- 65
2018-01-18 10:00:00 10.4 10 Este 37 Este 0 -- -- 67
2018-01-18 09:00:00 9.4 9 Sudeste 26 Sudeste 0 -- -- 69
2018-01-18 08:00:00 9.1 5 Este 15 Sudeste 0 -- -- 74
2018-01-18 07:00:00 9.7 3 Sur 19 Este 0 -- -- 61
2018-01-18 06:00:00 11.4 15 Este 28 Este 0 -- -- 52
2018-01-18 05:00:00 11.5 13 Este 23 Este 0 -- -- 53
2018-01-18 04:00:00 11.9 9 Este 33 Este 0 -- -- 51
2018-01-18 03:00:00 12.4 15 Este 35 Sudeste 0 -- -- 48
2018-01-18 02:00:00 12.5 10 Sudeste 35 Este 0 -- -- 42
2018-01-18 01:00:00 12.6 3 Noroeste 33 Este 0 -- -- 42
2018-01-18 00:00:00 15.9 24 Este 40 Este 0 -- -- 25
2018-01-17 23:00:00 10.2 2 Este 5 Este 0 -- -- 65
2018-01-17 22:00:00 10.1 0 Calma 6 Este 0 -- -- 71
2018-01-17 21:00:00 10.4 0 Calma 5 Este 0 -- -- 72
2018-01-17 20:00:00 11.7 0 Calma 5 Este 0 -- -- 70
2018-01-17 19:00:00 13.9 2 Este 6 Noroeste 0 -- -- 63
2018-01-17 18:00:00 18 4 Sudoeste 10 Sudoeste 0 -- -- 52
2018-01-17 17:00:00 19.9 5 Sudoeste 13 Noroeste 0 -- -- 50
2018-01-17 16:00:00 21.2 6 Sudoeste 13 Sudoeste 0 -- -- 41
2018-01-17 15:00:00 21.6 6 Sur 12 Sur 0 -- -- 36
2018-01-17 14:00:00 19.7 4 Noroeste 17 Sudoeste 0 -- -- 38
2018-01-17 13:00:00 20.4 6 Sudoeste 12 Noroeste 0 -- -- 34
2018-01-17 12:00:00 16.9 0 Calma 8 Noroeste 0 -- -- 39
2018-01-17 11:00:00 14.4 3 Sudoeste 6 Sudeste 0 -- -- 48
2018-01-17 10:00:00 11 4 Nordeste 9 Sudeste 0 -- -- 59
2018-01-17 09:00:00 9.8 6 Este 15 Nordeste 0 -- -- 63
2018-01-17 08:00:00 9.3 6 Nordeste 12 Este 0 -- -- 71
2018-01-17 07:00:00 9.3 3 Este 12 Nordeste 0 -- -- 71
2018-01-17 06:00:00 10 5 Este 13 Este 0 -- -- 69
2018-01-17 05:00:00 9.7 4 Este 13 Este 0 -- -- 71
2018-01-17 04:00:00 9.6 0 Calma 8 Nordeste 0 -- -- 71
2018-01-17 03:00:00 9.1 3 Este 10 Nordeste 0 -- -- 73
2018-01-17 02:00:00 9 5 Nordeste 9 Nordeste 0 -- -- 73
2018-01-17 01:00:00 8.5 5 Nordeste 8 Nordeste 0 -- -- 75
2018-01-17 00:00:00 8.9 3 Este 8 Nordeste 0 -- -- 75
2018-01-16 23:00:00 8.7 3 Nordeste 9 Nordeste 0 -- -- 77
2018-01-16 22:00:00 9.1 6 Nordeste 9 Este 0 -- -- 77
2018-01-16 21:00:00 8.7 2 Este 8 Este 0 -- -- 79
2018-01-16 20:00:00 9.7 0 Calma 6 Este 0 -- -- 75
2018-01-16 19:00:00 11.1 3 Nordeste 5 Norte 0 -- -- 70
2018-01-16 18:00:00 14.7 0 Calma 9 Sudoeste 0 -- -- 58
2018-01-16 17:00:00 16.1 5 Sur 11 Sudoeste 0 -- -- 56
2018-01-16 16:00:00 15.9 6 Sur 13 Sur 0 -- -- 56
2018-01-16 15:00:00 15.8 6 Sudoeste 11 Sur 0 -- -- 53
2018-01-16 14:00:00 14.9 4 Sudoeste 14 Sur 0 -- -- 52
2018-01-16 13:00:00 13.9 4 Sur 10 Sur 0 -- -- 45
2018-01-16 12:00:00 12.1 3 Sur 8 Sudoeste 0 -- -- 58
2018-01-16 11:00:00 8.9 0 Calma 5 Sudoeste 0 -- -- 67
2018-01-16 10:00:00 5.5 0 Calma 6 Nordeste 0 -- -- 76
2018-01-16 09:00:00 4 0 Calma 10 Nordeste 0 -- -- 76
2018-01-16 08:00:00 3.7 4 Nordeste 9 Nordeste 0 -- -- 79
2018-01-16 07:00:00 3.3 4 Nordeste 8 Nordeste 0 -- -- 81
2018-01-16 06:00:00 3.1 4 Nordeste 8 Nordeste 0 -- -- 82
2018-01-16 05:00:00 3.2 4 Este 8 Nordeste 0 -- -- 81
2018-01-16 04:00:00 3.7 2 Nordeste 5 Este 0 -- -- 79
2018-01-16 03:00:00 4.7 0 Calma 13 Este 0 -- -- 79
2018-01-16 02:00:00 5.2 9 Este 15 Nordeste 0 -- -- 81
2018-01-16 01:00:00 3.9 3 Este 8 Este 0 -- -- 81
2018-01-16 00:00:00 4.2 2 Este 8 Nordeste 0 -- -- 81
2018-01-15 23:00:00 4.7 4 Nordeste 7 Nordeste 0 -- -- 82
2018-01-15 22:00:00 5.2 5 Nordeste 10 Nordeste 0 -- -- 84
2018-01-15 21:00:00 5.4 3 Nordeste 7 Nordeste 0 -- -- 83
2018-01-15 20:00:00 6.4 4 Nordeste 12 Nordeste 0 -- -- 80
2018-01-15 19:00:00 7.9 10 Este 18 Este 0 -- -- 74
2018-01-15 18:00:00 9.9 5 Este 12 Nordeste 0 -- -- 67
2018-01-15 17:00:00 11.2 3 Sudoeste 15 Nordeste 0 -- -- 58
2018-01-15 16:00:00 12.3 5 Sudeste 14 Oeste 0 -- -- 57
2018-01-15 15:00:00 11.4 5 Sudoeste 14 Oeste 0 -- -- 56
2018-01-15 14:00:00 11.5 8 Sudoeste 20 Sur 0 -- -- 54
2018-01-15 13:00:00 10.4 8 Sudoeste 17 Sudoeste 0 -- -- 57
2018-01-15 12:00:00 9.5 7 Sudoeste 14 Noroeste 0 -- -- 61
2018-01-15 11:00:00 6.3 2 Noroeste 8 Sur 0 -- -- 71
2018-01-15 10:00:00 4.1 4 Sur 10 Sudoeste 0 -- -- 81
2018-01-15 09:00:00 2.5 4 Noroeste 9 Noroeste 0 -- -- 83
2018-01-15 08:00:00 2.6 3 Sur 10 Nordeste 0 -- -- 82
2018-01-15 07:00:00 4 6 Este 27 Nordeste 0 -- -- 73
2018-01-15 06:00:00 2.7 3 Noroeste 12 Sur 0 -- -- 82
2018-01-15 05:00:00 3 2 Noroeste 9 Nordeste 0 -- -- 82
2018-01-15 04:00:00 3.9 5 Nordeste 19 Este 0 -- -- 80
2018-01-15 03:00:00 4.4 3 Este 14 Sudeste 0 -- -- 81
2018-01-15 02:00:00 4.4 6 Este 21 Sudeste 0 -- -- 78
2018-01-15 01:00:00 4.5 6 Este 31 Nordeste 0 -- -- 78
2018-01-15 00:00:00 4.8 9 Este 24 Nordeste 0 -- -- 79
2018-01-14 23:00:00 4.8 3 Sudeste 19 Este 0 -- -- 80
2018-01-14 22:00:00 4.9 7 Este 22 Nordeste 0 -- -- 81
2018-01-14 21:00:00 4.8 6 Nordeste 18 Nordeste 0 -- -- 84
2018-01-14 20:00:00 5.1 2 Este 11 Este 0 -- -- 79
2018-01-14 19:00:00 5.7 4 Este 12 Norte 0 -- -- 76
2018-01-14 18:00:00 7.1 6 Nordeste 16 Nordeste 0 -- -- 68
2018-01-14 17:00:00 9.1 9 Noroeste 20 Oeste 0.2 -- -- 69
2018-01-14 16:00:00 8.9 3 Sur 9 Sudeste 0.4 -- -- 91
2018-01-14 15:00:00 7.3 4 Sudoeste 10 Oeste 0 -- -- 89
2018-01-14 14:00:00 6.7 0 Calma 10 Sudoeste 0.2 -- -- 92
2018-01-14 13:00:00 6.5 5 Oeste 9 Oeste 0.6 -- -- 92
2018-01-14 12:00:00 6.8 0 Calma 4 Oeste 1 -- -- 91
2018-01-14 11:00:00 6.8 0 Calma 6 Este 0.4 -- -- 89
2018-01-14 10:00:00 6.3 2 Nordeste 6 Noroeste 0.2 -- -- 88
2018-01-14 09:00:00 6 3 Nordeste 6 Este 0 -- -- 83
2018-01-14 08:00:00 5.7 0 Calma 5 Nordeste 0 -- -- 82
2018-01-14 07:00:00 5.7 2 Nordeste 6 Sudeste 0 -- -- 82
2018-01-14 06:00:00 5.8 3 Sudeste 11 Sudeste 0 -- -- 79
2018-01-14 05:00:00 5.7 3 Sudoeste 13 Oeste 0 -- -- 78
2018-01-14 04:00:00 5.8 3 Sur 12 Noroeste 0 -- -- 76
2018-01-14 03:00:00 6.7 5 Noroeste 19 Oeste 0 -- -- 72
2018-01-14 02:00:00 7.2 9 Norte 23 Norte 0 -- -- 69
2018-01-14 01:00:00 7.4 8 Noroeste 24 Noroeste 0 -- -- 71
2018-01-14 00:00:00 7 4 Nordeste 16 Noroeste 0 -- -- 74
2018-01-13 23:00:00 7 3 Norte 15 Noroeste 0 -- -- 73
2018-01-13 22:00:00 7.6 7 Norte 25 Noroeste 0 -- -- 72
2018-01-13 21:00:00 8 9 Norte 35 Nordeste 0 -- -- 71
2018-01-13 20:00:00 8.1 17 Nordeste 34 Nordeste 0 -- -- 67
2018-01-13 19:00:00 8.6 12 Noroeste 32 Noroeste 0 -- -- 70
2018-01-13 18:00:00 9.3 16 Noroeste 34 Noroeste 0 -- -- 72
2018-01-13 17:00:00 9.5 10 Noroeste 26 Noroeste 0 -- -- 80
2018-01-13 16:00:00 8.5 13 Noroeste 33 Oeste 1.2 -- -- 84
2018-01-13 15:00:00 8.2 0 Calma 4 Sur 1.2 -- -- 90
2018-01-13 14:00:00 8.1 2 Nordeste 9 Sudoeste 0.2 -- -- 85
2018-01-13 13:00:00 8.9 5 Sudoeste 10 Oeste 0 -- -- 75
2018-01-13 12:00:00 8.3 5 Sudoeste 11 Sudoeste 0 -- -- 78
2018-01-13 11:00:00 7.7 3 Sudeste 9 Oeste 0 -- -- 68
2018-01-13 10:00:00 7.7 4 Sur 6 Sur 0 -- -- 70
2018-01-13 09:00:00 5.8 3 Nordeste 7 Este 0 -- -- 65
2018-01-13 08:00:00 6.2 3 Nordeste 9 Nordeste 0 -- -- 60
2018-01-13 07:00:00 5.4 2 Este 7 Nordeste 0 -- -- 59
2018-01-13 06:00:00 5.1 3 Norte 11 Este 0 -- -- 56
2018-01-13 05:00:00 4.6 0 Calma 5 Este 0 -- -- 60
2018-01-13 04:00:00 5.7 0 Calma 5 Este 0 -- -- 56
2018-01-13 03:00:00 5.4 0 Calma 5 Este 0 -- -- 64
2018-01-13 02:00:00 5.3 2 Nordeste 5 Este 0 -- -- 67
2018-01-13 01:00:00 5.3 0 Calma 5 Nordeste 0 -- -- 64
2018-01-13 00:00:00 5.5 0 Calma 8 Sudeste 0 -- -- 66
2018-01-12 23:00:00 5.3 0 Calma 4 Noroeste 0 -- -- 74
2018-01-12 22:00:00 5.9 0 Calma 6 Norte 0 -- -- 73
2018-01-12 21:00:00 6.3 4 Nordeste 6 Norte 0 -- -- 71
2018-01-12 20:00:00 6.7 2 Nordeste 4 Nordeste 0 -- -- 69
2018-01-12 19:00:00 8.1 0 Calma 5 Norte 0 -- -- 64
2018-01-12 18:00:00 10.7 0 Calma 10 Noroeste 0 -- -- 54
2018-01-12 17:00:00 12.8 6 Sudoeste 12 Sudoeste 0 -- -- 50
2018-01-12 16:00:00 13.3 5 Oeste 13 Sudoeste 0 -- -- 52
2018-01-12 15:00:00 13.7 9 Sudoeste 15 Sudoeste 0 -- -- 47
2018-01-12 14:00:00 13.3 6 Oeste 12 Oeste 0 -- -- 46
2018-01-12 13:00:00 11.5 4 Noroeste 10 Oeste 0 -- -- 49
2018-01-12 12:00:00 9.5 4 Oeste 10 Sur 0 -- -- 61
2018-01-12 11:00:00 7.6 0 Calma 6 Sur 0 -- -- 66
2018-01-12 10:00:00 5.1 2 Norte 9 Nordeste 0 -- -- 73
2018-01-12 09:00:00 3 3 Nordeste 8 Nordeste 0 -- -- 80
2018-01-12 08:00:00 3.3 3 Este 10 Este 0 -- -- 83
2018-01-12 07:00:00 3.4 3 Nordeste 9 Este 0 -- -- 85
2018-01-12 06:00:00 4.3 2 Sudoeste 15 Sudeste 0 -- -- 79
2018-01-12 05:00:00 5 4 Nordeste 21 Nordeste 0 -- -- 80
2018-01-12 04:00:00 5.6 6 Este 22 Este 0 -- -- 78
2018-01-12 03:00:00 5.6 5 Norte 12 Nordeste 0 -- -- 79
2018-01-12 02:00:00 5.6 3 Norte 10 Norte 0 -- -- 81
2018-01-12 01:00:00 6.2 2 Sur 28 Este 0 -- -- 79
2018-01-12 00:00:00 7.2 6 Nordeste 16 Norte 0 -- -- 78
2018-01-11 23:00:00 7.9 5 Nordeste 15 Nordeste 0 -- -- 78
2018-01-11 22:00:00 8.4 4 Este 22 Nordeste 0 -- -- 77
2018-01-11 21:00:00 8.5 3 Noroeste 30 Nordeste 0 -- -- 78
2018-01-11 20:00:00 8.3 7 Oeste 27 Noroeste 0 -- -- 74
2018-01-11 19:00:00 8.6 6 Oeste 21 Oeste 0 -- -- 74
2018-01-11 18:00:00 9 6 Norte 30 Nordeste 0 -- -- 71
2018-01-11 17:00:00 9.4 8 Oeste 31 Noroeste 0 -- -- 68
2018-01-11 16:00:00 9.6 6 Este 33 Norte 0 -- -- 69
2018-01-11 15:00:00 9.6 13 Oeste 39 Oeste 0 -- -- 67
2018-01-11 14:00:00 9.6 8 Oeste 27 Oeste 0 -- -- 68
2018-01-11 13:00:00 9.4 8 Noroeste 32 Nordeste 0 -- -- 69
2018-01-11 12:00:00 9.7 7 Norte 30 Noroeste 0 -- -- 69
2018-01-11 11:00:00 8.4 4 Sudeste 33 Noroeste 0 -- -- 74
2018-01-11 10:00:00 6.3 12 Oeste 30 Oeste 0 -- -- 77
2018-01-11 09:00:00 5.6 9 Norte 22 Nordeste 0 -- -- 77
2018-01-11 08:00:00 4.8 4 Oeste 16 Nordeste 0 -- -- 78
2018-01-11 07:00:00 5.6 7 Nordeste 27 Nordeste 0 -- -- 75
2018-01-11 06:00:00 5.7 5 Norte 28 Nordeste 0 -- -- 76
2018-01-11 05:00:00 6.6 14 Nordeste 36 Nordeste 0 -- -- 78
2018-01-11 04:00:00 7 8 Noroeste 23 Oeste 0 -- -- 77
2018-01-11 03:00:00 7.1 4 Nordeste 15 Nordeste 0 -- -- 76
2018-01-11 02:00:00 7.3 4 Este 19 Este 0 -- -- 77
2018-01-11 01:00:00 8.1 3 Sudeste 21 Este 0 -- -- 74
2018-01-11 00:00:00 9.2 6 Sudoeste 31 Noroeste 0 -- -- 73
2018-01-10 23:00:00 10.7 7 Oeste 38 Norte 0 -- -- 70
2018-01-10 22:00:00 10.6 8 Noroeste 24 Oeste 0.2 -- -- 85
2018-01-10 21:00:00 10.4 15 Oeste 39 Oeste 0.2 -- -- 86
2018-01-10 20:00:00 10.5 16 Oeste 39 Noroeste 0 -- -- 83
2018-01-10 19:00:00 10.7 18 Oeste 35 Oeste 0 -- -- 78
2018-01-10 18:00:00 11.1 13 Oeste 34 Oeste 0 -- -- 77
2018-01-10 17:00:00 11.6 9 Oeste 24 Noroeste 0 -- -- 74
2018-01-10 16:00:00 11.5 13 Oeste 33 Oeste 0 -- -- 74
2018-01-10 15:00:00 11.7 12 Oeste 32 Noroeste 0 -- -- 69
2018-01-10 14:00:00 12.6 14 Oeste 41 Oeste 0 -- -- 67
2018-01-10 13:00:00 12.1 12 Oeste 22 Oeste 0 -- -- 68
2018-01-10 12:00:00 11.1 4 Norte 18 Norte 0 -- -- 71
2018-01-10 11:00:00 11.4 5 Sudeste 32 Nordeste 0 -- -- 73
2018-01-10 10:00:00 9.4 8 Nordeste 26 Nordeste 0 -- -- 74
2018-01-10 09:00:00 8.6 10 Nordeste 35 Norte 0 -- -- 76
2018-01-10 08:00:00 8.6 6 Norte 26 Nordeste 0 -- -- 76
2018-01-10 07:00:00 7.7 5 Norte 15 Norte 0 -- -- 84
2018-01-10 06:00:00 8.8 4 Norte 26 Norte 0 -- -- 84
2018-01-10 05:00:00 8.4 3 Norte 12 Sudeste 0 -- -- 96
2018-01-10 04:00:00 9.1 3 Sudoeste 6 Sudoeste 0 -- -- 98
2018-01-10 03:00:00 8.9 3 Sudoeste 9 Oeste 1.6 -- -- 98
2018-01-10 02:00:00 8.7 2 Sur 12 Oeste 3.4 -- -- 97
2018-01-10 01:00:00 8.6 3 Noroeste 9 Sur 1.8 -- -- 98
2018-01-10 00:00:00 8.3 3 Nordeste 14 Sudeste 1.2 -- -- 98
2018-01-09 23:00:00 8 2 Sudoeste 16 Oeste 0.4 -- -- 97
2018-01-09 22:00:00 8.1 10 Oeste 29 Oeste 1 -- -- 97
2018-01-09 21:00:00 8.3 5 Sudoeste 21 Oeste 1 -- -- 97
2018-01-09 20:00:00 8.1 5 Sur 19 Sur 2 -- -- 96
2018-01-09 19:00:00 7.8 4 Sudoeste 12 Sur 1.8 -- -- 96
2018-01-09 18:00:00 7.8 3 Oeste 20 Sudoeste 2 -- -- 96
2018-01-09 17:00:00 7.7 6 Oeste 13 Oeste 1.2 -- -- 95
2018-01-09 16:00:00 7.6 2 Sudoeste 6 Oeste 0.8 -- -- 93
2018-01-09 15:00:00 7.2 0 Calma 6 Norte 0.4 -- -- 92
2018-01-09 14:00:00 7 0 Calma 7 Sudoeste 0.2 -- -- 89
2018-01-09 13:00:00 7 3 Oeste 10 Norte 0 -- -- 87
2018-01-09 12:00:00 6.5 3 Sudeste 6 Sudeste 0 -- -- 87
2018-01-09 11:00:00 5.4 0 Calma 10 Noroeste 0 -- -- 88
2018-01-09 10:00:00 4.2 4 Este 8 Este 0 -- -- 91
2018-01-09 09:00:00 2.5 0 Calma 8 Este 0 -- -- 90
2018-01-09 08:00:00 1.9 3 Nordeste 8 Este 0 -- -- 90
2018-01-09 07:00:00 1.6 2 Nordeste 8 Nordeste 0 -- -- 90
2018-01-09 06:00:00 1.7 3 Nordeste 8 Nordeste 0 -- -- 91
2018-01-09 05:00:00 1.3 0 Calma 7 Nordeste 0 -- -- 89
2018-01-09 04:00:00 1.4 0 Calma 6 Nordeste 0 -- -- 92
2018-01-09 03:00:00 1.6 0 Calma 6 Nordeste 0 -- -- 93
2018-01-09 02:00:00 1.4 4 Nordeste 5 Nordeste 0 -- -- 94
2018-01-09 01:00:00 1.1 0 Calma 5 Este 0 -- -- 94
2018-01-09 00:00:00 -- -- -- -- -- -- -- -- --
2018-01-08 23:00:00 -- -- -- -- -- -- -- -- --
2018-01-08 22:00:00 -- -- -- -- -- -- -- -- --
2018-01-08 21:00:00 -- -- -- -- -- -- -- -- --
2018-01-08 20:00:00 -- -- -- -- -- -- -- -- --
2018-01-08 19:00:00 4 0 Calma 5 Norte 0 -- -- 89
2018-01-08 18:00:00 5.5 0 Calma 5 Sudoeste 0 -- -- 90
2018-01-08 17:00:00 5.5 2 Nordeste 6 Nordeste 0 -- -- 86
2018-01-08 16:00:00 5.5 6 Oeste 12 Nordeste 0 -- -- 88
2018-01-08 15:00:00 5.8 3 Este 9 Nordeste 0 -- -- 87
2018-01-08 14:00:00 4.8 7 Nordeste 17 Este 0.2 -- -- 88
2018-01-08 13:00:00 4.3 -- -- -- -- -- -- -- --
2018-01-08 12:00:00 2.1 3 Nordeste 8 Este 2.2 -- -- 94
2018-01-08 11:00:00 1.5 5 Oeste 20 Nordeste 1.4 -- -- 92
2018-01-08 10:00:00 1.7 6 Este 23 Sur 5.6 -- -- 91
2018-01-08 09:00:00 3.9 5 Sur 15 Oeste 4.4 -- -- 91
2018-01-08 08:00:00 -- -- -- -- -- -- -- -- --
2018-01-08 07:00:00 4.3 3 Este 17 Nordeste 1.6 -- -- 90
2018-01-08 06:00:00 4.2 2 Oeste 9 Sur 0 -- -- 91
2018-01-08 05:00:00 4.2 2 Sur 9 Sur 0 -- -- 89
2018-01-08 04:00:00 4.2 4 Sur 8 Sur 0 -- -- 89
2018-01-08 03:00:00 4.2 2 Sudoeste 5 Oeste 0 -- -- 89
2018-01-08 02:00:00 4.2 3 Oeste 5 Oeste 0 -- -- 85
2018-01-08 01:00:00 4.5 0 Calma 5 Sudoeste 0 -- -- 82
2018-01-08 00:00:00 4.8 5 Oeste 12 Oeste 0 -- -- 77
2018-01-07 23:00:00 4.5 2 Sur 10 Sudeste 0 -- -- 78
2018-01-07 22:00:00 4.7 4 Sur 12 Sur 0 -- -- 79
2018-01-07 21:00:00 4.8 2 Sur 12 Sur 0 -- -- 80
2018-01-07 20:00:00 4.8 5 Sur 17 Oeste 0 -- -- 77
2018-01-07 19:00:00 5 6 Oeste 14 Sudoeste 0 -- -- 77
2018-01-07 18:00:00 5.5 3 Sudoeste 13 Oeste 0 -- -- 74
2018-01-07 17:00:00 5.8 9 Noroeste 29 Oeste 0 -- -- 68
2018-01-07 16:00:00 6.6 10 Noroeste 26 Oeste 0 -- -- 62
2018-01-07 15:00:00 7.3 11 Noroeste 24 Oeste 0 -- -- 66
2018-01-07 14:00:00 5.4 10 Noroeste 22 Noroeste 0 -- -- 66
2018-01-07 13:00:00 5 5 Sudoeste 13 Sudoeste 0 -- -- 68
2018-01-07 12:00:00 3.5 0 Calma 8 Noroeste 0 -- -- 73
2018-01-07 11:00:00 2.8 0 Calma 10 Nordeste 0 -- -- 73
2018-01-07 10:00:00 2.1 4 Nordeste 11 Nordeste 0 -- -- 71
2018-01-07 09:00:00 1.3 3 Nordeste 13 Este 0 -- -- 74
2018-01-07 08:00:00 1.1 3 Nordeste 7 Nordeste 0 -- -- 75
2018-01-07 07:00:00 0.7 3 Nordeste 8 Nordeste 0 -- -- 77
2018-01-07 06:00:00 0.6 0 Calma 6 Norte 0 -- -- 80
2018-01-07 05:00:00 1.2 0 Calma 5 Sudeste 0 -- -- 77
2018-01-07 04:00:00 1.5 3 Este 5 Sudeste 0 -- -- 75
2018-01-07 03:00:00 1.9 0 Calma 5 Sur 0 -- -- 74
2018-01-07 02:00:00 2.8 2 Sudeste 14 Noroeste 0 -- -- 67
2018-01-07 01:00:00 3.7 4 Oeste 19 Nordeste 0 -- -- 61
2018-01-07 00:00:00 3.8 8 Norte 18 Norte 0 -- -- 62
2018-01-06 23:00:00 3.4 2 Nordeste 9 Norte 0 -- -- 64
2018-01-06 22:00:00 4 4 Noroeste 19 Noroeste 0 -- -- 58
2018-01-06 21:00:00 4.8 10 Noroeste 31 Noroeste 0 -- -- 58
2018-01-06 20:00:00 5.3 17 Noroeste 40 Noroeste 0 -- -- 62
2018-01-06 19:00:00 5.5 15 Noroeste 31 Noroeste 0 -- -- 64
2018-01-06 18:00:00 6.1 15 Noroeste 29 Noroeste 0 -- -- 61
2018-01-06 17:00:00 6.9 14 Oeste 30 Oeste 0 -- -- 65
2018-01-06 16:00:00 7.9 10 Noroeste 33 Noroeste 0 -- -- 59
2018-01-06 15:00:00 7.8 15 Noroeste 38 Noroeste 0 -- -- 56
2018-01-06 14:00:00 7.4 14 Noroeste 40 Oeste 0 -- -- 62
2018-01-06 13:00:00 7 9 Noroeste 36 Oeste 0 -- -- 72
2018-01-06 12:00:00 5.1 7 Noroeste 54 Nordeste 0 -- -- 89
2018-01-06 11:00:00 3.7 29 Nordeste 71 Norte 0 -- -- 90
2018-01-06 10:00:00 3.4 38 Norte 65 Norte 0.6 -- -- 86
2018-01-06 09:00:00 3.7 23 Norte 49 Norte 0.4 -- -- 84
2018-01-06 08:00:00 4.7 23 Norte 41 Norte 3.2 -- -- 83
2018-01-06 07:00:00 6.9 15 Oeste 55 Sur 4.6 -- -- 92
2018-01-06 06:00:00 7.1 20 Sur 48 Sur 3.2 -- -- 93
2018-01-06 05:00:00 6.5 4 Sudoeste 19 Sudoeste 4.4 -- -- 95
2018-01-06 04:00:00 6.4 8 Sudoeste 62 Oeste 3.4 -- -- 92
2018-01-06 03:00:00 9.1 12 Sudoeste 34 Sur 0 -- -- 90
2018-01-06 02:00:00 9.2 11 Oeste 36 Oeste 0.8 -- -- 94
2018-01-06 01:00:00 9.6 8 Sudoeste 22 Oeste 0 -- -- 93
2018-01-06 00:00:00 9.5 12 Sudoeste 32 Oeste 0 -- -- 94
2018-01-05 23:00:00 9.6 10 Sudoeste 27 Sudoeste 0 -- -- 92
2018-01-05 22:00:00 9.8 12 Sudoeste 25 Sudoeste 0 -- -- 89
2018-01-05 21:00:00 9.8 10 Sudoeste 29 Sudoeste 0 -- -- 87
2018-01-05 20:00:00 10 13 Oeste 31 Oeste 0 -- -- 82
2018-01-05 19:00:00 10.1 9 Sudoeste 22 Oeste 0 -- -- 82
2018-01-05 18:00:00 10.8 10 Oeste 33 Oeste 0 -- -- 79
2018-01-05 17:00:00 11.5 17 Oeste 34 Oeste 0 -- -- 72
2018-01-05 16:00:00 12.2 15 Oeste 32 Oeste 0 -- -- 72
2018-01-05 15:00:00 11.7 12 Oeste 31 Oeste 0 -- -- 70
2018-01-05 14:00:00 11.5 14 Oeste 32 Oeste 0 -- -- 72
2018-01-05 13:00:00 11.2 3 Noroeste 24 Noroeste 0 -- -- 71
2018-01-05 12:00:00 11.5 12 Oeste 34 Oeste 0 -- -- 75
2018-01-05 11:00:00 11.8 15 Oeste 27 Oeste 0 -- -- 72
2018-01-05 10:00:00 10.7 11 Oeste 28 Noroeste 0 -- -- 77
2018-01-05 09:00:00 10.1 7 Noroeste 22 Norte 0 -- -- 79
2018-01-05 08:00:00 9.3 2 Oeste 20 Norte 0 -- -- 80
2018-01-05 07:00:00 9.1 10 Norte 35 Norte 0 -- -- 79
2018-01-05 06:00:00 6.7 0 Calma 9 Este 0 -- -- 86
2018-01-05 05:00:00 7.2 3 Este 8 Este 0 -- -- 87
2018-01-05 04:00:00 7.2 4 Este 9 Sudeste 0 -- -- 88
2018-01-05 03:00:00 7.3 2 Este 4 Este 0 -- -- 86
2018-01-05 02:00:00 7.9 0 Calma 9 Sudeste 0 -- -- 85
2018-01-05 01:00:00 8.3 2 Este 5 Este 0 -- -- 86
2018-01-05 00:00:00 8.6 3 Este 7 Nordeste 0 -- -- 87
2018-01-04 23:00:00 8.6 0 Calma 6 Este 0 -- -- 87
2018-01-04 22:00:00 9 0 Calma 13 Sudeste 0 -- -- 84
2018-01-04 21:00:00 10.1 5 Este 10 Sudeste 0 -- -- 83
2018-01-04 20:00:00 12 4 Sur 8 Sudeste 0 -- -- 75
2018-01-04 19:00:00 13.3 0 Calma 5 Este 0 -- -- 73
2018-01-04 18:00:00 16.1 2 Sudoeste 9 Sur 0 -- -- 64
2018-01-04 17:00:00 18.2 6 Sudoeste 24 Nordeste 0 -- -- 58
2018-01-04 16:00:00 20.1 13 Norte 29 Norte 0 -- -- 43
2018-01-04 15:00:00 20.4 18 Norte 31 Norte 0 -- -- 44
2018-01-04 14:00:00 21.6 10 Norte 23 Noroeste 0 -- -- 42
2018-01-04 13:00:00 21.2 10 Noroeste 21 Noroeste 0 -- -- 43
2018-01-04 12:00:00 20.9 4 Sudoeste 7 Sudoeste 0 -- -- 46
2018-01-04 11:00:00 18 2 Sur 5 Este 0 -- -- 55
2018-01-04 10:00:00 13.8 0 Calma 7 Este 0 -- -- 66
2018-01-04 09:00:00 12.4 2 Nordeste 8 Este 0 -- -- 63
2018-01-04 08:00:00 12.7 6 Este 12 Este 0 -- -- 61
2018-01-04 07:00:00 12.5 3 Este 9 Este 0 -- -- 61
2018-01-04 06:00:00 12.3 2 Este 12 Este 0 -- -- 60
2018-01-04 05:00:00 12.4 5 Norte 9 Norte 0 -- -- 57
2018-01-04 04:00:00 11.4 0 Calma 10 Nordeste 0 -- -- 60
2018-01-04 03:00:00 11.8 2 Este 6 Este 0 -- -- 58
2018-01-04 02:00:00 12.8 5 Nordeste 9 Este 0 -- -- 55
2018-01-04 01:00:00 12.4 3 Este 10 Nordeste 0 -- -- 58
2018-01-04 00:00:00 12.2 6 Este 14 Nordeste 0 -- -- 66
2018-01-03 23:00:00 12.1 3 Este 10 Nordeste 0 -- -- 68
2018-01-03 22:00:00 12.1 3 Este 7 Nordeste 0 -- -- 70
2018-01-03 21:00:00 12.4 3 Nordeste 11 Este 0 -- -- 70
2018-01-03 20:00:00 13.3 3 Este 9 Sur 0 -- -- 67
2018-01-03 19:00:00 15 0 Calma 22 Sudeste 0 -- -- 62
2018-01-03 18:00:00 17.8 15 Este 28 Este 0 -- -- 49
2018-01-03 17:00:00 21.3 5 Sudoeste 14 Sudoeste 0 -- -- 45
2018-01-03 16:00:00 21.8 6 Sudoeste 13 Sudoeste 0 -- -- 46
2018-01-03 15:00:00 21.6 5 Oeste 13 Sudoeste 0 -- -- 47
2018-01-03 14:00:00 20.9 6 Oeste 24 Este 0 -- -- 47
2018-01-03 13:00:00 20.4 4 Este 10 Nordeste 0 -- -- 44
2018-01-03 12:00:00 18.2 4 Sudoeste 12 Sur 0 -- -- 55
2018-01-03 11:00:00 16.4 4 Norte 21 Este 0 -- -- 58
2018-01-03 10:00:00 13.4 5 Sur 12 Este 0 -- -- 70
2018-01-03 09:00:00 13.5 5 Norte 19 Nordeste 0 -- -- 67
2018-01-03 08:00:00 13.6 12 Nordeste 24 Nordeste 0 -- -- 69
2018-01-03 07:00:00 12.7 5 Nordeste 16 Nordeste 0 -- -- 70
2018-01-03 06:00:00 12 0 Calma 13 Nordeste 0 -- -- 75
2018-01-03 05:00:00 11.3 4 Nordeste 9 Nordeste 0 -- -- 78
2018-01-03 04:00:00 11 3 Nordeste 7 Este 0 -- -- 79
2018-01-03 03:00:00 11.1 3 Norte 9 Nordeste 0 -- -- 77
2018-01-03 02:00:00 10.9 3 Noroeste 8 Noroeste 0 -- -- 77
2018-01-03 01:00:00 10.9 4 Nordeste 10 Sur 0 -- -- 77
2018-01-03 00:00:00 10.9 3 Sur 8 Este 0 -- -- 77
2018-01-02 23:00:00 11.3 3 Este 19 Sur 0 -- -- 75
2018-01-02 22:00:00 11.6 6 Sudoeste 26 Nordeste 0 -- -- 72
2018-01-02 21:00:00 11.3 6 Sudeste 24 Sudeste 0 -- -- 73
2018-01-02 20:00:00 10.3 6 Sur 20 Sur 0 -- -- 74
2018-01-02 19:00:00 11.4 3 Oeste 21 Noroeste 0 -- -- 68
2018-01-02 18:00:00 14.2 6 Sudoeste 25 Sudoeste 0 -- -- 60
2018-01-02 17:00:00 16.3 12 Sudoeste 21 Sudoeste 0 -- -- 54
2018-01-02 16:00:00 17.3 6 Sudoeste 28 Noroeste 0 -- -- 51
2018-01-02 15:00:00 18.9 8 Sur 17 Oeste 0 -- -- 42
2018-01-02 14:00:00 17.9 11 Oeste 19 Sudoeste 0 -- -- 42
2018-01-02 13:00:00 17.3 5 Nordeste 34 Este 0 -- -- 43
2018-01-02 12:00:00 16.2 17 Nordeste 42 Norte 0 -- -- 39
2018-01-02 11:00:00 15.6 11 Nordeste 34 Nordeste 0 -- -- 23
2018-01-02 10:00:00 14.2 8 Sur 26 Nordeste 0 -- -- 24
2018-01-02 09:00:00 13.2 8 Sur 40 Nordeste 0 -- -- 22
2018-01-02 08:00:00 15 19 Nordeste 45 Norte 0 -- -- 16
2018-01-02 07:00:00 14.8 13 Nordeste 36 Norte 0 -- -- 14
2018-01-02 06:00:00 11.1 7 Sur 17 Sur 0 -- -- 24
2018-01-02 05:00:00 8.9 4 Oeste 12 Noroeste 0 -- -- 42
2018-01-02 04:00:00 8.3 2 Sudeste 14 Oeste 0 -- -- 59
2018-01-02 03:00:00 8.6 6 Sur 14 Sudeste 0 -- -- 60
2018-01-02 02:00:00 9 4 Oeste 17 Oeste 0 -- -- 55
2018-01-02 01:00:00 7.8 4 Sur 16 Sudoeste 0 -- -- 56
2018-01-02 00:00:00 8.2 0 Calma 6 Norte 0 -- -- 51
2018-01-01 23:00:00 9.3 3 Nordeste 15 Oeste 0 -- -- 42
2018-01-01 22:00:00 10.4 12 Noroeste 21 Oeste 0 -- -- 31
2018-01-01 21:00:00 11.3 5 Sudoeste 24 Nordeste 0 -- -- 26
2018-01-01 20:00:00 9.8 6 Sudeste 17 Sudeste 0 -- -- 41
2018-01-01 19:00:00 11.4 10 Este 32 Sudeste 0 -- -- 40
2018-01-01 18:00:00 13.7 8 Este 33 Norte 0 -- -- 27
2018-01-01 17:00:00 16.7 8 Oeste 22 Noroeste 0 -- -- 28
2018-01-01 16:00:00 17.1 7 Sudoeste 25 Norte 0 -- -- 31
2018-01-01 15:00:00 17.2 4 Nordeste 29 Norte 0 -- -- 26
2018-01-01 14:00:00 17.9 7 Noroeste 24 Norte 0 -- -- 22
2018-01-01 13:00:00 17.3 4 Sur 10 Oeste 0 -- -- 22
2018-01-01 12:00:00 15.7 6 Sur 10 Sudoeste 0 -- -- 28
2018-01-01 11:00:00 12.7 2 Sur 9 Nordeste 0 -- -- 32
2018-01-01 10:00:00 9 2 Este 8 Norte 0 -- -- 39
2018-01-01 09:00:00 7.2 3 Nordeste 10 Nordeste 0 -- -- 38
2018-01-01 08:00:00 6.5 6 Nordeste 10 Nordeste 0 -- -- 45
2018-01-01 07:00:00 5.7 0 Calma 8 Nordeste 0 -- -- 61
2018-01-01 06:00:00 7.1 3 Nordeste 9 Nordeste 0 -- -- 55
2018-01-01 05:00:00 7.1 3 Este 9 Sudeste 0 -- -- 64
2018-01-01 04:00:00 8.3 2 Noroeste 37 Este 0 -- -- 58
2018-01-01 03:00:00 8.4 4 Sudoeste 24 Este 0 -- -- 66
2018-01-01 02:00:00 9.5 14 Este 35 Nordeste 0 -- -- 61
2018-01-01 01:00:00 10.3 6 Norte 41 Norte 0 -- -- 66
2018-01-01 00:00:00 11.3 11 Nordeste 31 Nordeste 0 -- -- 77
2017-12-31 23:00:00 12.2 8 Norte 27 Norte 0 -- -- 73
2017-12-31 22:00:00 12.6 9 Oeste 27 Oeste 0 -- -- 73
2017-12-31 21:00:00 12.2 10 Oeste 24 Noroeste 0 -- -- 77
2017-12-31 20:00:00 12.4 9 Noroeste 22 Norte 0 -- -- 77
2017-12-31 19:00:00 12.3 9 Noroeste 19 Oeste 0 -- -- 79
2017-12-31 18:00:00 12.6 17 Noroeste 35 Oeste 0 -- -- 73
2017-12-31 17:00:00 13.4 13 Noroeste 38 Oeste 0 -- -- 68
2017-12-31 16:00:00 14.2 19 Noroeste 44 Noroeste 0 -- -- 67
2017-12-31 15:00:00 13.4 13 Noroeste 44 Noroeste 0 -- -- 67
2017-12-31 14:00:00 14.1 8 Noroeste 25 Oeste 0 -- -- 67
2017-12-31 13:00:00 13.1 7 Oeste 13 Oeste 0 -- -- 73
2017-12-31 12:00:00 12.5 3 Oeste 7 Sudoeste 0 -- -- 80
2017-12-31 11:00:00 11.1 3 Sudoeste 7 Sudoeste 0 -- -- 84
2017-12-31 10:00:00 10.1 3 Nordeste 5 Nordeste 0 -- -- 87
2017-12-31 09:00:00 9.6 3 Oeste 9 Nordeste 0 -- -- 87
2017-12-31 08:00:00 9.4 2 Norte 8 Norte 0 -- -- 79
2017-12-31 07:00:00 9.7 0 Calma 7 Este 0 -- -- 70
2017-12-31 06:00:00 9.8 0 Calma 8 Nordeste 0 -- -- 68
2017-12-31 05:00:00 10.6 5 Nordeste 11 Nordeste 0 -- -- 69
2017-12-31 04:00:00 11.2 3 Nordeste 12 Nordeste 0 -- -- 67
2017-12-31 03:00:00 12 6 Nordeste 12 Nordeste 0 -- -- 74
2017-12-31 02:00:00 10.7 3 Este 6 Nordeste 0 -- -- 72
2017-12-31 01:00:00 10.7 3 Noroeste 8 Este 0 -- -- 72